sensor_id;sensor_type;location;lat;lon;timestamp;P1;durP1;ratioP1;P2;durP2;ratioP2
49029;SDS011;43337;52.070;4.508;2023-05-19T00:01:11;9.57;;;3.30;;
49029;SDS011;43337;52.070;4.508;2023-05-19T00:03:51;6.28;;;2.83;;
49029;SDS011;43337;52.070;4.508;2023-05-19T00:06:21;10.88;;;4.32;;
49029;SDS011;43337;52.070;4.508;2023-05-19T00:08:49;8.68;;;3.05;;
49029;SDS011;43337;52.070;4.508;2023-05-19T00:11:20;10.60;;;3.60;;
49029;SDS011;43337;52.070;4.508;2023-05-19T00:13:46;9.68;;;3.20;;
49029;SDS011;43337;52.070;4.508;2023-05-19T00:16:13;9.82;;;4.22;;
49029;SDS011;43337;52.070;4.508;2023-05-19T00:18:39;9.07;;;2.95;;
49029;SDS011;43337;52.070;4.508;2023-05-19T00:21:05;9.65;;;3.85;;
49029;SDS011;43337;52.070;4.508;2023-05-19T00:23:31;11.40;;;3.15;;
49029;SDS011;43337;52.070;4.508;2023-05-19T00:25:56;9.90;;;3.63;;
49029;SDS011;43337;52.070;4.508;2023-05-19T00:28:22;10.40;;;3.88;;
49029;SDS011;43337;52.070;4.508;2023-05-19T00:30:47;10.00;;;3.13;;
49029;SDS011;43337;52.070;4.508;2023-05-19T00:33:12;9.40;;;3.53;;
49029;SDS011;43337;52.070;4.508;2023-05-19T00:35:39;9.77;;;3.42;;
49029;SDS011;43337;52.070;4.508;2023-05-19T00:38:11;12.25;;;3.15;;
49029;SDS011;43337;52.070;4.508;2023-05-19T00:40:37;12.63;;;3.20;;
49029;SDS011;43337;52.070;4.508;2023-05-19T00:43:03;10.73;;;3.58;;
49029;SDS011;43337;52.070;4.508;2023-05-19T00:45:29;11.90;;;3.78;;
49029;SDS011;43337;52.070;4.508;2023-05-19T00:47:55;9.23;;;3.30;;
49029;SDS011;43337;52.070;4.508;2023-05-19T00:50:21;9.02;;;3.30;;
49029;SDS011;43337;52.070;4.508;2023-05-19T00:52:49;11.15;;;3.90;;
49029;SDS011;43337;52.070;4.508;2023-05-19T00:55:15;9.55;;;2.80;;
49029;SDS011;43337;52.070;4.508;2023-05-19T00:57:41;9.43;;;3.20;;
49029;SDS011;43337;52.070;4.508;2023-05-19T01:00:08;12.40;;;3.53;;
49029;SDS011;43337;52.070;4.508;2023-05-19T01:02:35;15.00;;;4.18;;
49029;SDS011;43337;52.070;4.508;2023-05-19T01:05:02;11.68;;;3.63;;
49029;SDS011;43337;52.070;4.508;2023-05-19T01:07:27;10.00;;;4.10;;
49029;SDS011;43337;52.070;4.508;2023-05-19T01:09:54;7.40;;;3.28;;
49029;SDS011;43337;52.070;4.508;2023-05-19T01:12:20;11.50;;;4.00;;
49029;SDS011;43337;52.070;4.508;2023-05-19T01:14:45;8.98;;;3.38;;
49029;SDS011;43337;52.070;4.508;2023-05-19T01:22:31;7.05;;;3.15;;
49029;SDS011;43337;52.070;4.508;2023-05-19T01:30:29;10.82;;;3.63;;
49029;SDS011;43337;52.070;4.508;2023-05-19T01:32:59;7.88;;;3.38;;
49029;SDS011;43337;52.070;4.508;2023-05-19T01:35:26;13.50;;;3.88;;
49029;SDS011;43337;52.070;4.508;2023-05-19T01:37:54;8.48;;;3.25;;
49029;SDS011;43337;52.070;4.508;2023-05-19T01:40:22;10.60;;;3.90;;
49029;SDS011;43337;52.070;4.508;2023-05-19T01:42:50;8.50;;;4.05;;
49029;SDS011;43337;52.070;4.508;2023-05-19T01:45:17;10.32;;;3.45;;
49029;SDS011;43337;52.070;4.508;2023-05-19T01:47:45;9.80;;;3.70;;
49029;SDS011;43337;52.070;4.508;2023-05-19T01:50:13;9.38;;;3.45;;
49029;SDS011;43337;52.070;4.508;2023-05-19T01:52:38;9.27;;;3.60;;
49029;SDS011;43337;52.070;4.508;2023-05-19T01:55:04;10.23;;;3.80;;
49029;SDS011;43337;52.070;4.508;2023-05-19T02:00:13;10.43;;;3.90;;
49029;SDS011;43337;52.070;4.508;2023-05-19T02:02:59;10.05;;;3.80;;
49029;SDS011;43337;52.070;4.508;2023-05-19T02:08:18;8.48;;;3.70;;
49029;SDS011;43337;52.070;4.508;2023-05-19T02:10:53;12.07;;;3.63;;
49029;SDS011;43337;52.070;4.508;2023-05-19T02:13:32;8.05;;;3.45;;
49029;SDS011;43337;52.070;4.508;2023-05-19T02:16:04;6.70;;;3.38;;
49029;SDS011;43337;52.070;4.508;2023-05-19T02:18:33;9.82;;;3.22;;
49029;SDS011;43337;52.070;4.508;2023-05-19T02:20:59;11.57;;;4.10;;
49029;SDS011;43337;52.070;4.508;2023-05-19T02:23:25;9.63;;;3.70;;
49029;SDS011;43337;52.070;4.508;2023-05-19T02:25:51;10.15;;;4.03;;
49029;SDS011;43337;52.070;4.508;2023-05-19T02:28:16;10.13;;;4.10;;
49029;SDS011;43337;52.070;4.508;2023-05-19T02:30:42;8.90;;;3.75;;
49029;SDS011;43337;52.070;4.508;2023-05-19T02:33:07;10.00;;;3.55;;
49029;SDS011;43337;52.070;4.508;2023-05-19T02:35:35;8.93;;;3.85;;
49029;SDS011;43337;52.070;4.508;2023-05-19T02:38:00;12.65;;;3.90;;
49029;SDS011;43337;52.070;4.508;2023-05-19T02:40:26;9.18;;;4.13;;
49029;SDS011;43337;52.070;4.508;2023-05-19T02:42:51;11.95;;;4.32;;
49029;SDS011;43337;52.070;4.508;2023-05-19T02:45:17;9.77;;;3.78;;
49029;SDS011;43337;52.070;4.508;2023-05-19T02:47:42;9.25;;;3.80;;
49029;SDS011;43337;52.070;4.508;2023-05-19T02:50:07;12.82;;;4.40;;
49029;SDS011;43337;52.070;4.508;2023-05-19T02:52:33;14.60;;;3.90;;
49029;SDS011;43337;52.070;4.508;2023-05-19T02:54:58;9.80;;;3.70;;
49029;SDS011;43337;52.070;4.508;2023-05-19T02:57:24;10.10;;;3.95;;
49029;SDS011;43337;52.070;4.508;2023-05-19T02:59:50;9.80;;;3.70;;
49029;SDS011;43337;52.070;4.508;2023-05-19T03:02:16;8.80;;;3.95;;
49029;SDS011;43337;52.070;4.508;2023-05-19T03:04:41;15.60;;;5.28;;
49029;SDS011;43337;52.070;4.508;2023-05-19T03:07:07;10.90;;;3.83;;
49029;SDS011;43337;52.070;4.508;2023-05-19T03:09:39;9.18;;;3.65;;
49029;SDS011;43337;52.070;4.508;2023-05-19T03:12:05;12.98;;;4.30;;
49029;SDS011;43337;52.070;4.508;2023-05-19T03:14:31;12.45;;;4.22;;
49029;SDS011;43337;52.070;4.508;2023-05-19T03:16:58;10.55;;;5.13;;
49029;SDS011;43337;52.070;4.508;2023-05-19T03:19:24;13.55;;;5.15;;
49029;SDS011;43337;52.070;4.508;2023-05-19T03:21:49;8.45;;;4.30;;
49029;SDS011;43337;52.070;4.508;2023-05-19T03:24:15;10.27;;;4.30;;
49029;SDS011;43337;52.070;4.508;2023-05-19T03:26:41;12.65;;;4.60;;
49029;SDS011;43337;52.070;4.508;2023-05-19T03:29:09;9.68;;;3.92;;
49029;SDS011;43337;52.070;4.508;2023-05-19T03:31:35;12.70;;;4.25;;
49029;SDS011;43337;52.070;4.508;2023-05-19T03:34:00;14.05;;;4.38;;
49029;SDS011;43337;52.070;4.508;2023-05-19T03:36:30;7.53;;;3.78;;
49029;SDS011;43337;52.070;4.508;2023-05-19T03:38:56;12.13;;;4.55;;
49029;SDS011;43337;52.070;4.508;2023-05-19T03:41:22;12.10;;;4.55;;
49029;SDS011;43337;52.070;4.508;2023-05-19T03:43:48;12.13;;;4.25;;
49029;SDS011;43337;52.070;4.508;2023-05-19T03:46:13;13.63;;;5.18;;
49029;SDS011;43337;52.070;4.508;2023-05-19T03:48:38;12.10;;;4.07;;
49029;SDS011;43337;52.070;4.508;2023-05-19T03:51:05;9.52;;;3.80;;
49029;SDS011;43337;52.070;4.508;2023-05-19T03:53:31;16.35;;;4.35;;
49029;SDS011;43337;52.070;4.508;2023-05-19T03:55:56;14.35;;;4.57;;
49029;SDS011;43337;52.070;4.508;2023-05-19T03:58:23;8.18;;;4.05;;
49029;SDS011;43337;52.070;4.508;2023-05-19T04:00:48;10.30;;;4.65;;
49029;SDS011;43337;52.070;4.508;2023-05-19T04:03:15;9.45;;;3.97;;
49029;SDS011;43337;52.070;4.508;2023-05-19T04:05:40;10.93;;;4.20;;
49029;SDS011;43337;52.070;4.508;2023-05-19T04:08:09;8.43;;;3.78;;
49029;SDS011;43337;52.070;4.508;2023-05-19T04:10:34;11.77;;;4.43;;
49029;SDS011;43337;52.070;4.508;2023-05-19T04:12:59;8.65;;;4.07;;
49029;SDS011;43337;52.070;4.508;2023-05-19T04:15:25;11.35;;;4.22;;
49029;SDS011;43337;52.070;4.508;2023-05-19T04:17:50;12.00;;;4.45;;
49029;SDS011;43337;52.070;4.508;2023-05-19T04:20:16;14.70;;;5.03;;
49029;SDS011;43337;52.070;4.508;2023-05-19T04:22:41;11.27;;;4.00;;
49029;SDS011;43337;52.070;4.508;2023-05-19T04:25:07;9.60;;;4.28;;
49029;SDS011;43337;52.070;4.508;2023-05-19T04:27:36;12.63;;;4.63;;
49029;SDS011;43337;52.070;4.508;2023-05-19T04:30:06;14.35;;;4.85;;
49029;SDS011;43337;52.070;4.508;2023-05-19T04:32:32;9.63;;;4.40;;
49029;SDS011;43337;52.070;4.508;2023-05-19T04:34:58;12.07;;;4.00;;
49029;SDS011;43337;52.070;4.508;2023-05-19T04:37:24;16.83;;;4.57;;
49029;SDS011;43337;52.070;4.508;2023-05-19T04:39:51;9.05;;;3.88;;
49029;SDS011;43337;52.070;4.508;2023-05-19T04:42:17;13.35;;;5.40;;
49029;SDS011;43337;52.070;4.508;2023-05-19T04:44:45;13.98;;;4.53;;
49029;SDS011;43337;52.070;4.508;2023-05-19T04:47:13;12.82;;;4.57;;
49029;SDS011;43337;52.070;4.508;2023-05-19T04:49:39;13.55;;;3.80;;
49029;SDS011;43337;52.070;4.508;2023-05-19T04:52:08;14.35;;;4.40;;
49029;SDS011;43337;52.070;4.508;2023-05-19T04:54:35;10.65;;;4.47;;
49029;SDS011;43337;52.070;4.508;2023-05-19T04:57:01;9.73;;;4.43;;
49029;SDS011;43337;52.070;4.508;2023-05-19T04:59:27;15.18;;;4.10;;
49029;SDS011;43337;52.070;4.508;2023-05-19T05:01:52;14.00;;;4.72;;
49029;SDS011;43337;52.070;4.508;2023-05-19T05:04:18;11.82;;;5.47;;
49029;SDS011;43337;52.070;4.508;2023-05-19T05:06:43;11.32;;;4.30;;
49029;SDS011;43337;52.070;4.508;2023-05-19T05:09:12;15.35;;;5.00;;
49029;SDS011;43337;52.070;4.508;2023-05-19T05:11:41;16.25;;;5.50;;
49029;SDS011;43337;52.070;4.508;2023-05-19T05:14:07;15.32;;;4.93;;
49029;SDS011;43337;52.070;4.508;2023-05-19T05:16:32;11.88;;;4.82;;
49029;SDS011;43337;52.070;4.508;2023-05-19T05:18:59;14.18;;;4.40;;
49029;SDS011;43337;52.070;4.508;2023-05-19T05:21:25;15.90;;;5.13;;
49029;SDS011;43337;52.070;4.508;2023-05-19T05:23:52;14.15;;;5.05;;
49029;SDS011;43337;52.070;4.508;2023-05-19T05:26:17;14.35;;;5.43;;
49029;SDS011;43337;52.070;4.508;2023-05-19T05:28:45;11.60;;;4.95;;
49029;SDS011;43337;52.070;4.508;2023-05-19T05:31:10;14.45;;;4.93;;
49029;SDS011;43337;52.070;4.508;2023-05-19T05:33:37;14.77;;;5.57;;
49029;SDS011;43337;52.070;4.508;2023-05-19T05:36:02;13.13;;;5.47;;
49029;SDS011;43337;52.070;4.508;2023-05-19T05:38:28;14.40;;;5.72;;
49029;SDS011;43337;52.070;4.508;2023-05-19T05:40:54;13.77;;;4.18;;
49029;SDS011;43337;52.070;4.508;2023-05-19T05:43:19;11.10;;;4.82;;
49029;SDS011;43337;52.070;4.508;2023-05-19T05:45:45;11.30;;;5.68;;
49029;SDS011;43337;52.070;4.508;2023-05-19T05:48:10;11.20;;;5.50;;
49029;SDS011;43337;52.070;4.508;2023-05-19T05:50:36;13.23;;;5.28;;
49029;SDS011;43337;52.070;4.508;2023-05-19T05:53:02;14.18;;;5.53;;
49029;SDS011;43337;52.070;4.508;2023-05-19T05:55:30;12.82;;;4.63;;
49029;SDS011;43337;52.070;4.508;2023-05-19T05:57:56;12.68;;;4.57;;
49029;SDS011;43337;52.070;4.508;2023-05-19T06:00:22;9.73;;;4.60;;
49029;SDS011;43337;52.070;4.508;2023-05-19T06:02:49;14.40;;;4.90;;
49029;SDS011;43337;52.070;4.508;2023-05-19T06:05:15;10.55;;;4.95;;
49029;SDS011;43337;52.070;4.508;2023-05-19T06:07:41;12.23;;;4.82;;
49029;SDS011;43337;52.070;4.508;2023-05-19T06:10:07;14.73;;;5.32;;
49029;SDS011;43337;52.070;4.508;2023-05-19T06:12:33;15.02;;;4.50;;
49029;SDS011;43337;52.070;4.508;2023-05-19T06:15:00;13.48;;;5.35;;
49029;SDS011;43337;52.070;4.508;2023-05-19T06:17:26;12.93;;;5.57;;
49029;SDS011;43337;52.070;4.508;2023-05-19T06:19:52;16.58;;;6.18;;
49029;SDS011;43337;52.070;4.508;2023-05-19T06:22:18;13.63;;;4.88;;
49029;SDS011;43337;52.070;4.508;2023-05-19T06:24:43;15.90;;;4.75;;
49029;SDS011;43337;52.070;4.508;2023-05-19T06:27:09;12.68;;;4.47;;
49029;SDS011;43337;52.070;4.508;2023-05-19T06:29:34;11.23;;;4.97;;
49029;SDS011;43337;52.070;4.508;2023-05-19T06:32:00;14.00;;;4.85;;
49029;SDS011;43337;52.070;4.508;2023-05-19T06:34:25;10.70;;;4.45;;
49029;SDS011;43337;52.070;4.508;2023-05-19T06:36:50;13.93;;;4.90;;
49029;SDS011;43337;52.070;4.508;2023-05-19T06:39:16;9.95;;;4.88;;
49029;SDS011;43337;52.070;4.508;2023-05-19T06:41:41;17.75;;;5.10;;
49029;SDS011;43337;52.070;4.508;2023-05-19T06:44:07;13.55;;;5.28;;
49029;SDS011;43337;52.070;4.508;2023-05-19T06:46:35;10.77;;;4.82;;
49029;SDS011;43337;52.070;4.508;2023-05-19T06:49:00;10.40;;;4.57;;
49029;SDS011;43337;52.070;4.508;2023-05-19T06:51:26;12.20;;;4.63;;
49029;SDS011;43337;52.070;4.508;2023-05-19T06:53:51;16.75;;;5.60;;
49029;SDS011;43337;52.070;4.508;2023-05-19T06:56:17;12.05;;;4.70;;
49029;SDS011;43337;52.070;4.508;2023-05-19T06:58:43;14.52;;;5.07;;
49029;SDS011;43337;52.070;4.508;2023-05-19T07:01:09;12.77;;;5.10;;
49029;SDS011;43337;52.070;4.508;2023-05-19T07:03:34;15.68;;;5.28;;
49029;SDS011;43337;52.070;4.508;2023-05-19T07:06:00;9.93;;;4.97;;
49029;SDS011;43337;52.070;4.508;2023-05-19T07:08:25;9.18;;;4.28;;
49029;SDS011;43337;52.070;4.508;2023-05-19T07:10:51;15.70;;;5.05;;
49029;SDS011;43337;52.070;4.508;2023-05-19T07:13:17;10.50;;;4.78;;
49029;SDS011;43337;52.070;4.508;2023-05-19T07:15:42;10.15;;;4.70;;
49029;SDS011;43337;52.070;4.508;2023-05-19T07:18:08;12.20;;;5.05;;
49029;SDS011;43337;52.070;4.508;2023-05-19T07:20:33;8.82;;;4.55;;
49029;SDS011;43337;52.070;4.508;2023-05-19T07:22:59;13.88;;;4.25;;
49029;SDS011;43337;52.070;4.508;2023-05-19T07:25:26;12.80;;;4.90;;
49029;SDS011;43337;52.070;4.508;2023-05-19T07:27:54;13.25;;;4.72;;
49029;SDS011;43337;52.070;4.508;2023-05-19T07:30:20;14.25;;;4.93;;
49029;SDS011;43337;52.070;4.508;2023-05-19T07:32:45;10.50;;;4.53;;
49029;SDS011;43337;52.070;4.508;2023-05-19T07:35:10;11.63;;;5.00;;
49029;SDS011;43337;52.070;4.508;2023-05-19T07:37:36;13.15;;;5.13;;
49029;SDS011;43337;52.070;4.508;2023-05-19T07:40:02;11.02;;;3.97;;
49029;SDS011;43337;52.070;4.508;2023-05-19T07:42:28;11.63;;;4.90;;
49029;SDS011;43337;52.070;4.508;2023-05-19T07:44:53;10.88;;;4.47;;
49029;SDS011;43337;52.070;4.508;2023-05-19T07:47:18;12.07;;;3.95;;
49029;SDS011;43337;52.070;4.508;2023-05-19T07:49:44;8.93;;;4.18;;
49029;SDS011;43337;52.070;4.508;2023-05-19T07:52:10;14.10;;;4.75;;
49029;SDS011;43337;52.070;4.508;2023-05-19T07:54:36;16.90;;;4.28;;
49029;SDS011;43337;52.070;4.508;2023-05-19T07:57:01;14.60;;;4.03;;
49029;SDS011;43337;52.070;4.508;2023-05-19T07:59:27;10.43;;;4.32;;
49029;SDS011;43337;52.070;4.508;2023-05-19T08:01:52;11.93;;;3.80;;
49029;SDS011;43337;52.070;4.508;2023-05-19T08:04:18;10.43;;;3.78;;
49029;SDS011;43337;52.070;4.508;2023-05-19T08:06:43;9.25;;;4.15;;
49029;SDS011;43337;52.070;4.508;2023-05-19T08:09:09;10.45;;;4.03;;
49029;SDS011;43337;52.070;4.508;2023-05-19T08:11:34;10.38;;;3.60;;
49029;SDS011;43337;52.070;4.508;2023-05-19T08:14:00;9.43;;;3.97;;
49029;SDS011;43337;52.070;4.508;2023-05-19T08:16:26;7.82;;;3.70;;
49029;SDS011;43337;52.070;4.508;2023-05-19T08:18:51;11.18;;;3.42;;
49029;SDS011;43337;52.070;4.508;2023-05-19T08:21:17;8.98;;;3.88;;
49029;SDS011;43337;52.070;4.508;2023-05-19T08:23:42;8.57;;;4.28;;
49029;SDS011;43337;52.070;4.508;2023-05-19T08:26:07;9.70;;;3.58;;
49029;SDS011;43337;52.070;4.508;2023-05-19T08:28:33;9.48;;;3.53;;
49029;SDS011;43337;52.070;4.508;2023-05-19T08:30:58;9.43;;;3.30;;
49029;SDS011;43337;52.070;4.508;2023-05-19T08:33:24;12.98;;;3.72;;
49029;SDS011;43337;52.070;4.508;2023-05-19T08:35:49;10.05;;;3.67;;
49029;SDS011;43337;52.070;4.508;2023-05-19T08:38:15;11.18;;;3.97;;
49029;SDS011;43337;52.070;4.508;2023-05-19T08:40:41;7.72;;;2.95;;
49029;SDS011;43337;52.070;4.508;2023-05-19T08:43:06;10.55;;;3.85;;
49029;SDS011;43337;52.070;4.508;2023-05-19T08:45:32;8.38;;;3.15;;
49029;SDS011;43337;52.070;4.508;2023-05-19T08:48:02;9.30;;;3.13;;
49029;SDS011;43337;52.070;4.508;2023-05-19T08:50:28;11.02;;;3.63;;
49029;SDS011;43337;52.070;4.508;2023-05-19T08:53:12;7.53;;;2.90;;
49029;SDS011;43337;52.070;4.508;2023-05-19T08:55:50;8.13;;;3.22;;
49029;SDS011;43337;52.070;4.508;2023-05-19T08:58:23;10.18;;;2.58;;
49029;SDS011;43337;52.070;4.508;2023-05-19T09:00:50;7.45;;;2.72;;
49029;SDS011;43337;52.070;4.508;2023-05-19T09:03:17;8.07;;;2.30;;
49029;SDS011;43337;52.070;4.508;2023-05-19T09:05:43;8.45;;;1.73;;
49029;SDS011;43337;52.070;4.508;2023-05-19T09:08:10;7.20;;;2.05;;
49029;SDS011;43337;52.070;4.508;2023-05-19T09:10:35;9.70;;;1.85;;
49029;SDS011;43337;52.070;4.508;2023-05-19T09:13:01;4.95;;;2.10;;
49029;SDS011;43337;52.070;4.508;2023-05-19T09:15:28;6.00;;;2.20;;
49029;SDS011;43337;52.070;4.508;2023-05-19T09:18:05;5.82;;;1.77;;
49029;SDS011;43337;52.070;4.508;2023-05-19T09:20:38;6.57;;;1.55;;
49029;SDS011;43337;52.070;4.508;2023-05-19T09:23:05;8.68;;;1.75;;
49029;SDS011;43337;52.070;4.508;2023-05-19T09:25:31;6.43;;;2.13;;
49029;SDS011;43337;52.070;4.508;2023-05-19T09:27:57;5.28;;;1.85;;
49029;SDS011;43337;52.070;4.508;2023-05-19T09:30:22;7.35;;;1.65;;
49029;SDS011;43337;52.070;4.508;2023-05-19T09:32:49;6.70;;;1.85;;
49029;SDS011;43337;52.070;4.508;2023-05-19T09:35:15;6.25;;;2.05;;
49029;SDS011;43337;52.070;4.508;2023-05-19T09:37:44;8.40;;;2.35;;
49029;SDS011;43337;52.070;4.508;2023-05-19T09:40:12;6.55;;;1.60;;
49029;SDS011;43337;52.070;4.508;2023-05-19T09:42:39;7.03;;;1.80;;
49029;SDS011;43337;52.070;4.508;2023-05-19T09:45:06;6.68;;;2.00;;
49029;SDS011;43337;52.070;4.508;2023-05-19T09:47:36;7.75;;;1.80;;
49029;SDS011;43337;52.070;4.508;2023-05-19T09:50:06;5.82;;;1.60;;
49029;SDS011;43337;52.070;4.508;2023-05-19T09:52:37;4.00;;;1.50;;
49029;SDS011;43337;52.070;4.508;2023-05-19T09:55:12;7.00;;;1.40;;
49029;SDS011;43337;52.070;4.508;2023-05-19T09:57:38;5.10;;;1.55;;
49029;SDS011;43337;52.070;4.508;2023-05-19T10:00:05;7.38;;;1.75;;
49029;SDS011;43337;52.070;4.508;2023-05-19T10:02:44;5.82;;;1.60;;
49029;SDS011;43337;52.070;4.508;2023-05-19T10:05:11;9.73;;;1.85;;
49029;SDS011;43337;52.070;4.508;2023-05-19T10:07:41;3.53;;;1.20;;
49029;SDS011;43337;52.070;4.508;2023-05-19T10:10:10;9.20;;;1.63;;
49029;SDS011;43337;52.070;4.508;2023-05-19T10:12:37;7.60;;;2.05;;
49029;SDS011;43337;52.070;4.508;2023-05-19T10:15:05;7.80;;;1.73;;
49029;SDS011;43337;52.070;4.508;2023-05-19T10:17:33;6.35;;;1.55;;
49029;SDS011;43337;52.070;4.508;2023-05-19T10:19:59;5.90;;;1.60;;
49029;SDS011;43337;52.070;4.508;2023-05-19T10:22:25;6.18;;;1.98;;
49029;SDS011;43337;52.070;4.508;2023-05-19T10:24:52;7.88;;;2.22;;
49029;SDS011;43337;52.070;4.508;2023-05-19T10:27:19;7.00;;;1.80;;
49029;SDS011;43337;52.070;4.508;2023-05-19T10:29:47;7.82;;;2.10;;
49029;SDS011;43337;52.070;4.508;2023-05-19T10:32:16;8.15;;;2.47;;
49029;SDS011;43337;52.070;4.508;2023-05-19T10:35:18;6.70;;;2.22;;
49029;SDS011;43337;52.070;4.508;2023-05-19T10:41:09;7.68;;;2.22;;
49029;SDS011;43337;52.070;4.508;2023-05-19T10:43:54;6.32;;;2.33;;
49029;SDS011;43337;52.070;4.508;2023-05-19T10:46:28;6.25;;;2.00;;
49029;SDS011;43337;52.070;4.508;2023-05-19T10:48:54;6.70;;;2.00;;
49029;SDS011;43337;52.070;4.508;2023-05-19T10:51:19;8.07;;;1.75;;
49029;SDS011;43337;52.070;4.508;2023-05-19T10:53:45;7.15;;;2.00;;
49029;SDS011;43337;52.070;4.508;2023-05-19T10:56:26;5.57;;;1.98;;
49029;SDS011;43337;52.070;4.508;2023-05-19T10:58:58;10.20;;;2.83;;
49029;SDS011;43337;52.070;4.508;2023-05-19T11:01:28;7.53;;;2.60;;
49029;SDS011;43337;52.070;4.508;2023-05-19T11:03:56;10.05;;;2.72;;
49029;SDS011;43337;52.070;4.508;2023-05-19T11:06:31;7.75;;;2.47;;
49029;SDS011;43337;52.070;4.508;2023-05-19T11:08:58;7.63;;;2.40;;
49029;SDS011;43337;52.070;4.508;2023-05-19T11:11:26;5.82;;;2.05;;
49029;SDS011;43337;52.070;4.508;2023-05-19T11:14:21;8.80;;;2.45;;
49029;SDS011;43337;52.070;4.508;2023-05-19T11:16:50;8.38;;;2.53;;
49029;SDS011;43337;52.070;4.508;2023-05-19T11:19:17;6.95;;;2.70;;
49029;SDS011;43337;52.070;4.508;2023-05-19T11:21:47;4.72;;;2.08;;
49029;SDS011;43337;52.070;4.508;2023-05-19T11:29:55;8.32;;;2.72;;
49029;SDS011;43337;52.070;4.508;2023-05-19T11:32:32;9.18;;;2.58;;
49029;SDS011;43337;52.070;4.508;2023-05-19T11:35:00;8.50;;;2.90;;
49029;SDS011;43337;52.070;4.508;2023-05-19T11:37:26;8.27;;;2.85;;
49029;SDS011;43337;52.070;4.508;2023-05-19T11:39:53;9.98;;;2.95;;
49029;SDS011;43337;52.070;4.508;2023-05-19T11:42:18;8.57;;;2.53;;
49029;SDS011;43337;52.070;4.508;2023-05-19T11:44:44;7.72;;;2.58;;
49029;SDS011;43337;52.070;4.508;2023-05-19T11:47:11;5.72;;;2.50;;
49029;SDS011;43337;52.070;4.508;2023-05-19T11:49:37;5.85;;;2.53;;
49029;SDS011;43337;52.070;4.508;2023-05-19T11:52:03;5.85;;;2.67;;
49029;SDS011;43337;52.070;4.508;2023-05-19T11:54:31;6.70;;;2.58;;
49029;SDS011;43337;52.070;4.508;2023-05-19T11:57:00;7.53;;;2.80;;
49029;SDS011;43337;52.070;4.508;2023-05-19T11:59:30;8.40;;;2.85;;
49029;SDS011;43337;52.070;4.508;2023-05-19T12:02:00;7.80;;;2.83;;
49029;SDS011;43337;52.070;4.508;2023-05-19T12:04:28;7.18;;;2.40;;
49029;SDS011;43337;52.070;4.508;2023-05-19T12:06:56;7.05;;;2.70;;
49029;SDS011;43337;52.070;4.508;2023-05-19T12:09:21;9.73;;;3.05;;
49029;SDS011;43337;52.070;4.508;2023-05-19T12:11:48;6.97;;;2.22;;
49029;SDS011;43337;52.070;4.508;2023-05-19T12:14:16;6.88;;;2.35;;
49029;SDS011;43337;52.070;4.508;2023-05-19T12:16:42;9.15;;;2.70;;
49029;SDS011;43337;52.070;4.508;2023-05-19T12:19:07;8.93;;;2.90;;
49029;SDS011;43337;52.070;4.508;2023-05-19T12:21:33;11.05;;;3.25;;
49029;SDS011;43337;52.070;4.508;2023-05-19T12:23:59;9.38;;;3.40;;
49029;SDS011;43337;52.070;4.508;2023-05-19T12:26:25;7.53;;;3.00;;
49029;SDS011;43337;52.070;4.508;2023-05-19T12:28:53;10.02;;;3.08;;
49029;SDS011;43337;52.070;4.508;2023-05-19T12:31:20;7.88;;;2.58;;
49029;SDS011;43337;52.070;4.508;2023-05-19T12:33:50;6.13;;;2.65;;
49029;SDS011;43337;52.070;4.508;2023-05-19T12:36:18;8.43;;;3.40;;
49029;SDS011;43337;52.070;4.508;2023-05-19T12:38:44;9.52;;;3.40;;
49029;SDS011;43337;52.070;4.508;2023-05-19T12:41:11;9.55;;;2.58;;
49029;SDS011;43337;52.070;4.508;2023-05-19T12:43:37;6.30;;;2.67;;
49029;SDS011;43337;52.070;4.508;2023-05-19T12:46:12;8.65;;;2.50;;
49029;SDS011;43337;52.070;4.508;2023-05-19T12:48:43;8.23;;;2.25;;
49029;SDS011;43337;52.070;4.508;2023-05-19T12:51:20;9.45;;;2.53;;
49029;SDS011;43337;52.070;4.508;2023-05-19T12:53:45;7.28;;;2.83;;
49029;SDS011;43337;52.070;4.508;2023-05-19T12:56:11;5.65;;;2.42;;
49029;SDS011;43337;52.070;4.508;2023-05-19T12:58:38;9.82;;;2.50;;
49029;SDS011;43337;52.070;4.508;2023-05-19T13:01:05;7.18;;;2.22;;
49029;SDS011;43337;52.070;4.508;2023-05-19T13:03:31;7.47;;;2.80;;
49029;SDS011;43337;52.070;4.508;2023-05-19T13:05:56;8.60;;;3.03;;
49029;SDS011;43337;52.070;4.508;2023-05-19T13:08:23;6.13;;;2.55;;
49029;SDS011;43337;52.070;4.508;2023-05-19T13:10:49;5.25;;;2.50;;
49029;SDS011;43337;52.070;4.508;2023-05-19T13:13:14;6.57;;;2.20;;
49029;SDS011;43337;52.070;4.508;2023-05-19T13:15:41;9.27;;;2.55;;
49029;SDS011;43337;52.070;4.508;2023-05-19T13:18:09;8.40;;;2.10;;
49029;SDS011;43337;52.070;4.508;2023-05-19T13:20:36;7.43;;;2.42;;
49029;SDS011;43337;52.070;4.508;2023-05-19T13:23:02;6.80;;;2.45;;
49029;SDS011;43337;52.070;4.508;2023-05-19T13:25:28;10.20;;;2.20;;
49029;SDS011;43337;52.070;4.508;2023-05-19T13:27:54;7.38;;;2.60;;
49029;SDS011;43337;52.070;4.508;2023-05-19T13:30:20;8.98;;;2.38;;
49029;SDS011;43337;52.070;4.508;2023-05-19T13:32:46;8.43;;;2.97;;
49029;SDS011;43337;52.070;4.508;2023-05-19T13:35:12;6.00;;;2.10;;
49029;SDS011;43337;52.070;4.508;2023-05-19T13:37:39;6.05;;;1.90;;
49029;SDS011;43337;52.070;4.508;2023-05-19T13:40:05;8.73;;;2.65;;
49029;SDS011;43337;52.070;4.508;2023-05-19T13:42:31;5.68;;;2.03;;
49029;SDS011;43337;52.070;4.508;2023-05-19T13:44:57;12.65;;;2.40;;
49029;SDS011;43337;52.070;4.508;2023-05-19T13:47:24;6.80;;;2.40;;
49029;SDS011;43337;52.070;4.508;2023-05-19T13:49:49;9.32;;;2.10;;
49029;SDS011;43337;52.070;4.508;2023-05-19T13:52:15;7.43;;;2.10;;
49029;SDS011;43337;52.070;4.508;2023-05-19T13:54:41;4.88;;;1.98;;
49029;SDS011;43337;52.070;4.508;2023-05-19T13:57:06;7.22;;;2.00;;
49029;SDS011;43337;52.070;4.508;2023-05-19T13:59:32;6.63;;;1.92;;
49029;SDS011;43337;52.070;4.508;2023-05-19T14:01:58;6.22;;;1.92;;
49029;SDS011;43337;52.070;4.508;2023-05-19T14:04:24;6.05;;;1.90;;
49029;SDS011;43337;52.070;4.508;2023-05-19T14:06:49;5.10;;;1.77;;
49029;SDS011;43337;52.070;4.508;2023-05-19T14:09:15;6.80;;;2.25;;
49029;SDS011;43337;52.070;4.508;2023-05-19T14:11:40;6.63;;;2.35;;
49029;SDS011;43337;52.070;4.508;2023-05-19T14:14:06;6.95;;;2.40;;
49029;SDS011;43337;52.070;4.508;2023-05-19T14:16:32;8.82;;;2.38;;
49029;SDS011;43337;52.070;4.508;2023-05-19T14:18:57;7.53;;;2.65;;
49029;SDS011;43337;52.070;4.508;2023-05-19T14:21:23;5.63;;;2.65;;
49029;SDS011;43337;52.070;4.508;2023-05-19T14:23:48;4.07;;;1.92;;
49029;SDS011;43337;52.070;4.508;2023-05-19T14:26:14;8.85;;;1.85;;
49029;SDS011;43337;52.070;4.508;2023-05-19T14:28:39;5.10;;;2.10;;
49029;SDS011;43337;52.070;4.508;2023-05-19T14:31:05;5.63;;;2.00;;
49029;SDS011;43337;52.070;4.508;2023-05-19T14:33:35;5.75;;;2.38;;
49029;SDS011;43337;52.070;4.508;2023-05-19T14:36:00;8.48;;;2.45;;
49029;SDS011;43337;52.070;4.508;2023-05-19T14:38:26;6.07;;;2.85;;
49029;SDS011;43337;52.070;4.508;2023-05-19T14:40:51;4.85;;;1.98;;
49029;SDS011;43337;52.070;4.508;2023-05-19T14:43:16;5.95;;;2.30;;
49029;SDS011;43337;52.070;4.508;2023-05-19T14:45:42;6.45;;;2.05;;
49029;SDS011;43337;52.070;4.508;2023-05-19T14:48:08;6.95;;;2.10;;
49029;SDS011;43337;52.070;4.508;2023-05-19T14:50:35;9.85;;;2.35;;
49029;SDS011;43337;52.070;4.508;2023-05-19T14:53:01;7.00;;;2.10;;
49029;SDS011;43337;52.070;4.508;2023-05-19T14:55:26;6.20;;;2.03;;
49029;SDS011;43337;52.070;4.508;2023-05-19T14:57:52;6.97;;;1.90;;
49029;SDS011;43337;52.070;4.508;2023-05-19T15:00:17;6.22;;;2.33;;
49029;SDS011;43337;52.070;4.508;2023-05-19T15:02:43;7.20;;;2.17;;
49029;SDS011;43337;52.070;4.508;2023-05-19T15:05:08;6.10;;;2.00;;
49029;SDS011;43337;52.070;4.508;2023-05-19T15:07:34;7.05;;;1.95;;